sensor_id;sensor_type;location;lat;lon;timestamp;P1;durP1;ratioP1;P2;durP2;ratioP2
4353;SDS011;11018;51.258;6.806;2023-06-19T00:01:12;11.30;;;7.80;;
4353;SDS011;11018;51.258;6.806;2023-06-19T00:03:37;9.87;;;8.10;;
4353;SDS011;11018;51.258;6.806;2023-06-19T00:06:03;10.43;;;7.80;;
4353;SDS011;11018;51.258;6.806;2023-06-19T00:08:29;16.67;;;8.20;;
4353;SDS011;11018;51.258;6.806;2023-06-19T00:10:55;12.40;;;8.32;;
4353;SDS011;11018;51.258;6.806;2023-06-19T00:13:21;9.57;;;7.90;;
4353;SDS011;11018;51.258;6.806;2023-06-19T00:15:46;9.95;;;7.50;;
4353;SDS011;11018;51.258;6.806;2023-06-19T00:18:12;9.30;;;7.60;;
4353;SDS011;11018;51.258;6.806;2023-06-19T00:20:38;10.10;;;7.50;;
4353;SDS011;11018;51.258;6.806;2023-06-19T00:23:04;11.45;;;7.70;;
4353;SDS011;11018;51.258;6.806;2023-06-19T00:25:31;8.17;;;7.37;;
4353;SDS011;11018;51.258;6.806;2023-06-19T00:27:57;9.07;;;7.50;;
4353;SDS011;11018;51.258;6.806;2023-06-19T00:30:22;9.15;;;7.90;;
4353;SDS011;11018;51.258;6.806;2023-06-19T00:32:48;11.10;;;7.80;;
4353;SDS011;11018;51.258;6.806;2023-06-19T00:35:15;12.20;;;8.13;;
4353;SDS011;11018;51.258;6.806;2023-06-19T00:37:42;11.70;;;7.80;;
4353;SDS011;11018;51.258;6.806;2023-06-19T00:40:27;10.68;;;7.75;;
4353;SDS011;11018;51.258;6.806;2023-06-19T00:42:54;9.60;;;7.50;;
4353;SDS011;11018;51.258;6.806;2023-06-19T00:45:20;8.97;;;7.70;;
4353;SDS011;11018;51.258;6.806;2023-06-19T00:47:45;11.50;;;7.63;;
4353;SDS011;11018;51.258;6.806;2023-06-19T00:50:11;9.63;;;8.00;;
4353;SDS011;11018;51.258;6.806;2023-06-19T00:52:37;9.97;;;7.77;;
4353;SDS011;11018;51.258;6.806;2023-06-19T00:55:03;10.00;;;8.00;;
4353;SDS011;11018;51.258;6.806;2023-06-19T00:57:30;11.10;;;7.73;;
4353;SDS011;11018;51.258;6.806;2023-06-19T00:59:56;10.10;;;7.85;;
4353;SDS011;11018;51.258;6.806;2023-06-19T01:02:23;14.38;;;11.25;;
4353;SDS011;11018;51.258;6.806;2023-06-19T01:04:49;11.20;;;9.32;;
4353;SDS011;11018;51.258;6.806;2023-06-19T01:07:16;13.63;;;9.90;;
4353;SDS011;11018;51.258;6.806;2023-06-19T01:09:49;12.32;;;10.10;;
4353;SDS011;11018;51.258;6.806;2023-06-19T01:12:20;15.40;;;11.45;;
4353;SDS011;11018;51.258;6.806;2023-06-19T01:14:58;10.40;;;8.73;;
4353;SDS011;11018;51.258;6.806;2023-06-19T01:17:27;14.93;;;10.10;;
4353;SDS011;11018;51.258;6.806;2023-06-19T01:19:54;11.80;;;8.30;;
4353;SDS011;11018;51.258;6.806;2023-06-19T01:22:30;15.75;;;8.88;;
4353;SDS011;11018;51.258;6.806;2023-06-19T01:24:56;13.98;;;8.77;;
4353;SDS011;11018;51.258;6.806;2023-06-19T01:27:25;10.15;;;8.07;;
4353;SDS011;11018;51.258;6.806;2023-06-19T01:29:54;9.75;;;7.70;;
4353;SDS011;11018;51.258;6.806;2023-06-19T01:32:40;12.88;;;7.90;;
4353;SDS011;11018;51.258;6.806;2023-06-19T01:35:29;14.15;;;8.20;;
4353;SDS011;11018;51.258;6.806;2023-06-19T01:37:57;11.25;;;8.43;;
4353;SDS011;11018;51.258;6.806;2023-06-19T01:40:25;10.50;;;8.70;;
4353;SDS011;11018;51.258;6.806;2023-06-19T01:42:56;12.38;;;8.63;;
4353;SDS011;11018;51.258;6.806;2023-06-19T01:45:25;11.15;;;8.70;;
4353;SDS011;11018;51.258;6.806;2023-06-19T01:47:54;14.45;;;9.00;;
4353;SDS011;11018;51.258;6.806;2023-06-19T01:50:23;12.37;;;8.77;;
4353;SDS011;11018;51.258;6.806;2023-06-19T01:52:49;10.70;;;8.60;;
4353;SDS011;11018;51.258;6.806;2023-06-19T01:55:15;9.50;;;8.38;;
4353;SDS011;11018;51.258;6.806;2023-06-19T01:57:41;10.55;;;8.30;;
4353;SDS011;11018;51.258;6.806;2023-06-19T02:00:06;11.20;;;8.70;;
4353;SDS011;11018;51.258;6.806;2023-06-19T02:02:32;10.73;;;8.60;;
4353;SDS011;11018;51.258;6.806;2023-06-19T02:04:58;10.38;;;8.43;;
4353;SDS011;11018;51.258;6.806;2023-06-19T02:07:24;10.60;;;8.00;;
4353;SDS011;11018;51.258;6.806;2023-06-19T02:09:50;10.73;;;8.80;;
4353;SDS011;11018;51.258;6.806;2023-06-19T02:12:16;10.50;;;8.25;;
4353;SDS011;11018;51.258;6.806;2023-06-19T02:14:41;10.38;;;8.77;;
4353;SDS011;11018;51.258;6.806;2023-06-19T02:17:07;12.00;;;9.30;;
4353;SDS011;11018;51.258;6.806;2023-06-19T02:19:32;11.77;;;8.50;;
4353;SDS011;11018;51.258;6.806;2023-06-19T02:21:58;10.90;;;8.68;;
4353;SDS011;11018;51.258;6.806;2023-06-19T02:24:24;11.33;;;8.80;;
4353;SDS011;11018;51.258;6.806;2023-06-19T02:26:49;11.40;;;8.40;;
4353;SDS011;11018;51.258;6.806;2023-06-19T02:29:15;11.65;;;9.23;;
4353;SDS011;11018;51.258;6.806;2023-06-19T02:31:41;13.13;;;9.55;;
4353;SDS011;11018;51.258;6.806;2023-06-19T02:34:07;12.95;;;9.20;;
4353;SDS011;11018;51.258;6.806;2023-06-19T02:36:34;14.68;;;9.60;;
4353;SDS011;11018;51.258;6.806;2023-06-19T02:39:00;11.27;;;9.50;;
4353;SDS011;11018;51.258;6.806;2023-06-19T02:41:26;11.98;;;9.00;;
4353;SDS011;11018;51.258;6.806;2023-06-19T02:43:52;9.60;;;8.40;;
4353;SDS011;11018;51.258;6.806;2023-06-19T02:46:18;11.80;;;8.47;;
4353;SDS011;11018;51.258;6.806;2023-06-19T02:48:43;11.47;;;8.10;;
4353;SDS011;11018;51.258;6.806;2023-06-19T02:51:09;12.02;;;7.47;;
4353;SDS011;11018;51.258;6.806;2023-06-19T02:53:34;9.50;;;7.30;;
4353;SDS011;11018;51.258;6.806;2023-06-19T02:56:00;12.40;;;6.75;;
4353;SDS011;11018;51.258;6.806;2023-06-19T02:58:25;10.73;;;6.43;;
4353;SDS011;11018;51.258;6.806;2023-06-19T03:00:52;8.30;;;6.20;;
4353;SDS011;11018;51.258;6.806;2023-06-19T03:03:17;8.00;;;6.37;;
4353;SDS011;11018;51.258;6.806;2023-06-19T03:05:43;7.82;;;5.70;;
4353;SDS011;11018;51.258;6.806;2023-06-19T03:08:08;7.00;;;6.00;;
4353;SDS011;11018;51.258;6.806;2023-06-19T03:10:34;7.47;;;5.53;;
4353;SDS011;11018;51.258;6.806;2023-06-19T03:12:59;8.13;;;5.70;;
4353;SDS011;11018;51.258;6.806;2023-06-19T03:15:25;6.60;;;5.10;;
4353;SDS011;11018;51.258;6.806;2023-06-19T03:17:52;6.72;;;5.13;;
4353;SDS011;11018;51.258;6.806;2023-06-19T03:20:18;8.60;;;5.30;;
4353;SDS011;11018;51.258;6.806;2023-06-19T03:22:45;8.18;;;5.03;;
4353;SDS011;11018;51.258;6.806;2023-06-19T03:25:11;8.40;;;5.13;;
4353;SDS011;11018;51.258;6.806;2023-06-19T03:27:37;7.37;;;5.60;;
4353;SDS011;11018;51.258;6.806;2023-06-19T03:30:03;5.40;;;4.90;;
4353;SDS011;11018;51.258;6.806;2023-06-19T03:32:33;5.50;;;5.00;;
4353;SDS011;11018;51.258;6.806;2023-06-19T03:34:59;6.30;;;5.10;;
4353;SDS011;11018;51.258;6.806;2023-06-19T03:37:25;7.30;;;5.00;;
4353;SDS011;11018;51.258;6.806;2023-06-19T03:39:50;6.88;;;5.80;;
4353;SDS011;11018;51.258;6.806;2023-06-19T03:42:16;7.23;;;5.10;;
4353;SDS011;11018;51.258;6.806;2023-06-19T03:44:41;6.03;;;5.13;;
4353;SDS011;11018;51.258;6.806;2023-06-19T03:47:07;8.63;;;5.50;;
4353;SDS011;11018;51.258;6.806;2023-06-19T03:49:33;9.60;;;5.40;;
4353;SDS011;11018;51.258;6.806;2023-06-19T03:51:58;6.40;;;5.07;;
4353;SDS011;11018;51.258;6.806;2023-06-19T03:54:24;8.57;;;5.27;;
4353;SDS011;11018;51.258;6.806;2023-06-19T03:56:51;5.80;;;4.87;;
4353;SDS011;11018;51.258;6.806;2023-06-19T03:59:17;7.37;;;5.40;;
4353;SDS011;11018;51.258;6.806;2023-06-19T04:01:42;5.38;;;4.40;;
4353;SDS011;11018;51.258;6.806;2023-06-19T04:04:08;5.57;;;4.50;;
4353;SDS011;11018;51.258;6.806;2023-06-19T04:06:34;6.70;;;4.17;;
4353;SDS011;11018;51.258;6.806;2023-06-19T04:08:59;6.97;;;4.22;;
4353;SDS011;11018;51.258;6.806;2023-06-19T04:11:25;5.37;;;4.20;;
4353;SDS011;11018;51.258;6.806;2023-06-19T04:13:50;4.90;;;3.70;;
4353;SDS011;11018;51.258;6.806;2023-06-19T04:16:16;4.37;;;3.67;;
4353;SDS011;11018;51.258;6.806;2023-06-19T04:18:41;5.00;;;3.80;;
4353;SDS011;11018;51.258;6.806;2023-06-19T04:21:07;6.95;;;3.97;;
4353;SDS011;11018;51.258;6.806;2023-06-19T04:23:32;7.63;;;3.50;;
4353;SDS011;11018;51.258;6.806;2023-06-19T04:25:58;7.80;;;4.10;;
4353;SDS011;11018;51.258;6.806;2023-06-19T04:28:23;6.63;;;4.10;;
4353;SDS011;11018;51.258;6.806;2023-06-19T04:30:49;5.50;;;4.00;;
4353;SDS011;11018;51.258;6.806;2023-06-19T04:33:14;5.28;;;4.50;;
4353;SDS011;11018;51.258;6.806;2023-06-19T04:35:40;4.70;;;4.00;;
4353;SDS011;11018;51.258;6.806;2023-06-19T04:38:06;5.40;;;4.30;;
4353;SDS011;11018;51.258;6.806;2023-06-19T04:40:32;4.82;;;4.10;;
4353;SDS011;11018;51.258;6.806;2023-06-19T04:42:59;5.28;;;3.80;;
4353;SDS011;11018;51.258;6.806;2023-06-19T04:45:26;8.50;;;4.45;;
4353;SDS011;11018;51.258;6.806;2023-06-19T04:47:51;5.47;;;4.22;;
4353;SDS011;11018;51.258;6.806;2023-06-19T04:50:17;6.80;;;4.30;;
4353;SDS011;11018;51.258;6.806;2023-06-19T04:52:42;5.22;;;3.90;;
4353;SDS011;11018;51.258;6.806;2023-06-19T04:55:08;6.03;;;4.07;;
4353;SDS011;11018;51.258;6.806;2023-06-19T04:57:34;5.07;;;4.30;;
4353;SDS011;11018;51.258;6.806;2023-06-19T05:00:03;8.40;;;4.63;;
4353;SDS011;11018;51.258;6.806;2023-06-19T05:02:32;5.30;;;3.85;;
4353;SDS011;11018;51.258;6.806;2023-06-19T05:04:58;4.90;;;4.38;;
4353;SDS011;11018;51.258;6.806;2023-06-19T05:07:28;6.35;;;4.30;;
4353;SDS011;11018;51.258;6.806;2023-06-19T05:09:57;8.02;;;4.20;;
4353;SDS011;11018;51.258;6.806;2023-06-19T05:12:23;11.13;;;4.65;;
4353;SDS011;11018;51.258;6.806;2023-06-19T05:14:49;7.18;;;3.85;;
4353;SDS011;11018;51.258;6.806;2023-06-19T05:17:14;5.32;;;3.78;;
4353;SDS011;11018;51.258;6.806;2023-06-19T05:19:40;4.57;;;3.90;;
4353;SDS011;11018;51.258;6.806;2023-06-19T05:22:05;5.97;;;3.80;;
4353;SDS011;11018;51.258;6.806;2023-06-19T05:24:31;4.18;;;3.40;;
4353;SDS011;11018;51.258;6.806;2023-06-19T05:26:58;8.98;;;3.67;;
4353;SDS011;11018;51.258;6.806;2023-06-19T05:29:23;5.43;;;3.85;;
4353;SDS011;11018;51.258;6.806;2023-06-19T05:31:49;8.07;;;3.90;;
4353;SDS011;11018;51.258;6.806;2023-06-19T05:34:15;6.80;;;3.70;;
4353;SDS011;11018;51.258;6.806;2023-06-19T05:36:40;5.40;;;3.72;;
4353;SDS011;11018;51.258;6.806;2023-06-19T05:39:06;9.55;;;3.70;;
4353;SDS011;11018;51.258;6.806;2023-06-19T05:41:32;7.87;;;3.90;;
4353;SDS011;11018;51.258;6.806;2023-06-19T05:43:57;7.47;;;4.22;;
4353;SDS011;11018;51.258;6.806;2023-06-19T05:46:23;7.63;;;4.00;;
4353;SDS011;11018;51.258;6.806;2023-06-19T05:48:48;5.90;;;3.90;;
4353;SDS011;11018;51.258;6.806;2023-06-19T05:51:14;5.80;;;4.10;;
4353;SDS011;11018;51.258;6.806;2023-06-19T05:53:40;8.18;;;4.10;;
4353;SDS011;11018;51.258;6.806;2023-06-19T05:56:05;8.90;;;4.03;;
4353;SDS011;11018;51.258;6.806;2023-06-19T05:58:31;7.05;;;4.30;;
4353;SDS011;11018;51.258;6.806;2023-06-19T06:00:57;8.63;;;3.77;;
4353;SDS011;11018;51.258;6.806;2023-06-19T06:03:23;6.30;;;3.90;;
4353;SDS011;11018;51.258;6.806;2023-06-19T06:05:50;9.32;;;4.30;;
4353;SDS011;11018;51.258;6.806;2023-06-19T06:08:16;6.78;;;4.07;;
4353;SDS011;11018;51.258;6.806;2023-06-19T06:10:42;4.60;;;3.65;;
4353;SDS011;11018;51.258;6.806;2023-06-19T06:13:08;7.30;;;3.90;;
4353;SDS011;11018;51.258;6.806;2023-06-19T06:15:33;7.57;;;3.90;;
4353;SDS011;11018;51.258;6.806;2023-06-19T06:17:59;11.57;;;4.07;;
4353;SDS011;11018;51.258;6.806;2023-06-19T06:20:25;5.20;;;4.20;;
4353;SDS011;11018;51.258;6.806;2023-06-19T06:22:51;14.57;;;3.90;;
4353;SDS011;11018;51.258;6.806;2023-06-19T06:25:18;9.18;;;3.78;;
4353;SDS011;11018;51.258;6.806;2023-06-19T06:27:43;6.00;;;3.97;;
4353;SDS011;11018;51.258;6.806;2023-06-19T06:30:09;5.25;;;3.35;;
4353;SDS011;11018;51.258;6.806;2023-06-19T06:32:36;6.53;;;3.67;;
4353;SDS011;11018;51.258;6.806;2023-06-19T06:35:02;8.40;;;4.10;;
4353;SDS011;11018;51.258;6.806;2023-06-19T06:37:28;5.70;;;3.30;;
4353;SDS011;11018;51.258;6.806;2023-06-19T06:39:53;6.40;;;3.70;;
4353;SDS011;11018;51.258;6.806;2023-06-19T06:42:19;6.40;;;3.40;;
4353;SDS011;11018;51.258;6.806;2023-06-19T06:44:44;5.43;;;3.40;;
4353;SDS011;11018;51.258;6.806;2023-06-19T06:47:10;4.47;;;3.22;;
4353;SDS011;11018;51.258;6.806;2023-06-19T06:49:36;5.15;;;3.20;;
4353;SDS011;11018;51.258;6.806;2023-06-19T06:52:05;7.17;;;3.40;;
4353;SDS011;11018;51.258;6.806;2023-06-19T06:54:31;4.18;;;3.10;;
4353;SDS011;11018;51.258;6.806;2023-06-19T06:56:57;7.23;;;3.50;;
4353;SDS011;11018;51.258;6.806;2023-06-19T06:59:24;6.13;;;3.47;;
4353;SDS011;11018;51.258;6.806;2023-06-19T07:01:51;4.38;;;3.50;;
4353;SDS011;11018;51.258;6.806;2023-06-19T07:04:18;5.30;;;2.90;;
4353;SDS011;11018;51.258;6.806;2023-06-19T07:06:43;9.00;;;3.60;;
4353;SDS011;11018;51.258;6.806;2023-06-19T07:09:09;4.73;;;3.27;;
4353;SDS011;11018;51.258;6.806;2023-06-19T07:11:35;3.90;;;3.50;;
4353;SDS011;11018;51.258;6.806;2023-06-19T07:14:01;5.47;;;3.15;;
4353;SDS011;11018;51.258;6.806;2023-06-19T07:16:27;3.53;;;3.20;;
4353;SDS011;11018;51.258;6.806;2023-06-19T07:18:53;6.50;;;3.63;;
4353;SDS011;11018;51.258;6.806;2023-06-19T07:21:18;5.50;;;3.10;;
4353;SDS011;11018;51.258;6.806;2023-06-19T07:23:45;4.10;;;3.07;;
4353;SDS011;11018;51.258;6.806;2023-06-19T07:26:13;6.05;;;3.25;;
4353;SDS011;11018;51.258;6.806;2023-06-19T07:28:39;4.82;;;3.20;;
4353;SDS011;11018;51.258;6.806;2023-06-19T07:31:05;4.70;;;3.00;;
4353;SDS011;11018;51.258;6.806;2023-06-19T07:33:30;5.80;;;3.50;;
4353;SDS011;11018;51.258;6.806;2023-06-19T07:35:56;6.43;;;3.60;;
4353;SDS011;11018;51.258;6.806;2023-06-19T07:38:22;10.90;;;3.57;;
4353;SDS011;11018;51.258;6.806;2023-06-19T07:40:47;4.10;;;3.50;;
4353;SDS011;11018;51.258;6.806;2023-06-19T07:43:13;10.10;;;3.58;;
4353;SDS011;11018;51.258;6.806;2023-06-19T07:45:39;10.47;;;3.80;;
4353;SDS011;11018;51.258;6.806;2023-06-19T07:48:04;7.70;;;3.00;;
4353;SDS011;11018;51.258;6.806;2023-06-19T07:50:30;7.33;;;3.47;;
4353;SDS011;11018;51.258;6.806;2023-06-19T07:52:56;7.97;;;3.40;;
4353;SDS011;11018;51.258;6.806;2023-06-19T07:55:22;7.53;;;3.50;;
4353;SDS011;11018;51.258;6.806;2023-06-19T07:57:48;7.10;;;3.73;;
4353;SDS011;11018;51.258;6.806;2023-06-19T08:00:13;8.40;;;4.30;;
4353;SDS011;11018;51.258;6.806;2023-06-19T08:02:39;5.30;;;3.72;;
4353;SDS011;11018;51.258;6.806;2023-06-19T08:05:06;5.88;;;3.42;;
4353;SDS011;11018;51.258;6.806;2023-06-19T08:07:33;5.78;;;3.80;;
4353;SDS011;11018;51.258;6.806;2023-06-19T08:09:58;7.97;;;3.92;;
4353;SDS011;11018;51.258;6.806;2023-06-19T08:12:24;5.03;;;3.95;;
4353;SDS011;11018;51.258;6.806;2023-06-19T08:14:49;7.00;;;4.50;;
4353;SDS011;11018;51.258;6.806;2023-06-19T08:17:15;9.68;;;4.05;;
4353;SDS011;11018;51.258;6.806;2023-06-19T08:19:41;8.03;;;4.37;;
4353;SDS011;11018;51.258;6.806;2023-06-19T08:22:07;6.45;;;4.25;;
4353;SDS011;11018;51.258;6.806;2023-06-19T08:24:33;8.52;;;4.00;;
4353;SDS011;11018;51.258;6.806;2023-06-19T08:27:01;6.88;;;4.40;;
4353;SDS011;11018;51.258;6.806;2023-06-19T08:29:27;9.93;;;4.20;;
4353;SDS011;11018;51.258;6.806;2023-06-19T08:31:53;7.70;;;4.32;;
4353;SDS011;11018;51.258;6.806;2023-06-19T08:34:18;5.27;;;4.17;;
4353;SDS011;11018;51.258;6.806;2023-06-19T08:36:44;4.90;;;3.58;;
4353;SDS011;11018;51.258;6.806;2023-06-19T08:39:09;4.87;;;3.90;;
4353;SDS011;11018;51.258;6.806;2023-06-19T08:41:38;7.77;;;4.20;;
4353;SDS011;11018;51.258;6.806;2023-06-19T08:44:04;5.93;;;3.80;;
4353;SDS011;11018;51.258;6.806;2023-06-19T08:46:30;6.47;;;4.28;;
4353;SDS011;11018;51.258;6.806;2023-06-19T08:48:56;5.88;;;4.13;;
4353;SDS011;11018;51.258;6.806;2023-06-19T08:51:22;7.63;;;4.17;;
4353;SDS011;11018;51.258;6.806;2023-06-19T08:53:48;6.53;;;3.63;;
4353;SDS011;11018;51.258;6.806;2023-06-19T08:56:18;7.88;;;4.13;;
4353;SDS011;11018;51.258;6.806;2023-06-19T08:58:44;7.25;;;3.80;;
4353;SDS011;11018;51.258;6.806;2023-06-19T09:01:13;5.13;;;3.90;;
4353;SDS011;11018;51.258;6.806;2023-06-19T09:03:41;5.22;;;4.03;;
4353;SDS011;11018;51.258;6.806;2023-06-19T09:06:07;8.30;;;4.40;;
4353;SDS011;11018;51.258;6.806;2023-06-19T09:08:33;6.32;;;4.25;;
4353;SDS011;11018;51.258;6.806;2023-06-19T09:10:59;7.05;;;4.20;;
4353;SDS011;11018;51.258;6.806;2023-06-19T09:13:29;8.60;;;4.32;;
4353;SDS011;11018;51.258;6.806;2023-06-19T09:16:02;7.50;;;4.22;;
4353;SDS011;11018;51.258;6.806;2023-06-19T09:18:50;5.93;;;4.50;;
4353;SDS011;11018;51.258;6.806;2023-06-19T09:21:16;7.05;;;4.28;;
4353;SDS011;11018;51.258;6.806;2023-06-19T09:23:46;7.50;;;4.10;;
4353;SDS011;11018;51.258;6.806;2023-06-19T09:26:16;7.65;;;3.88;;
4353;SDS011;11018;51.258;6.806;2023-06-19T09:28:43;5.35;;;4.20;;
4353;SDS011;11018;51.258;6.806;2023-06-19T09:31:08;6.35;;;4.20;;
4353;SDS011;11018;51.258;6.806;2023-06-19T09:33:34;12.00;;;4.40;;
4353;SDS011;11018;51.258;6.806;2023-06-19T09:36:01;5.70;;;4.50;;
4353;SDS011;11018;51.258;6.806;2023-06-19T09:38:29;6.72;;;4.10;;
4353;SDS011;11018;51.258;6.806;2023-06-19T09:40:57;7.40;;;4.40;;
4353;SDS011;11018;51.258;6.806;2023-06-19T09:43:26;8.30;;;4.70;;
4353;SDS011;11018;51.258;6.806;2023-06-19T09:45:58;6.90;;;4.97;;
4353;SDS011;11018;51.258;6.806;2023-06-19T09:48:27;5.93;;;4.30;;
4353;SDS011;11018;51.258;6.806;2023-06-19T09:51:09;8.80;;;4.40;;
4353;SDS011;11018;51.258;6.806;2023-06-19T09:53:47;7.70;;;4.57;;
4353;SDS011;11018;51.258;6.806;2023-06-19T09:56:14;8.00;;;4.70;;
4353;SDS011;11018;51.258;6.806;2023-06-19T09:58:41;9.00;;;4.72;;
4353;SDS011;11018;51.258;6.806;2023-06-19T10:01:08;10.70;;;5.30;;
4353;SDS011;11018;51.258;6.806;2023-06-19T10:03:34;8.20;;;4.93;;
4353;SDS011;11018;51.258;6.806;2023-06-19T10:06:02;9.70;;;5.17;;
4353;SDS011;11018;51.258;6.806;2023-06-19T10:08:37;8.70;;;4.70;;
4353;SDS011;11018;51.258;6.806;2023-06-19T10:11:05;6.72;;;5.20;;
4353;SDS011;11018;51.258;6.806;2023-06-19T10:13:31;6.53;;;5.10;;
4353;SDS011;11018;51.258;6.806;2023-06-19T10:15:58;7.63;;;4.63;;
4353;SDS011;11018;51.258;6.806;2023-06-19T10:18:24;7.97;;;4.90;;
4353;SDS011;11018;51.258;6.806;2023-06-19T10:20:51;7.95;;;4.80;;
4353;SDS011;11018;51.258;6.806;2023-06-19T10:23:22;12.15;;;5.05;;
4353;SDS011;11018;51.258;6.806;2023-06-19T10:28:28;8.38;;;4.90;;
4353;SDS011;11018;51.258;6.806;2023-06-19T10:30:56;6.07;;;4.78;;
4353;SDS011;11018;51.258;6.806;2023-06-19T10:33:28;8.10;;;5.30;;
4353;SDS011;11018;51.258;6.806;2023-06-19T10:35:59;7.50;;;5.10;;
4353;SDS011;11018;51.258;6.806;2023-06-19T10:38:26;8.00;;;4.97;;
4353;SDS011;11018;51.258;6.806;2023-06-19T10:40:52;13.15;;;5.18;;
4353;SDS011;11018;51.258;6.806;2023-06-19T10:43:21;6.47;;;5.20;;
4353;SDS011;11018;51.258;6.806;2023-06-19T10:45:50;8.73;;;5.70;;
4353;SDS011;11018;51.258;6.806;2023-06-19T10:48:23;6.70;;;4.80;;
4353;SDS011;11018;51.258;6.806;2023-06-19T10:50:49;4.65;;;4.15;;
4353;SDS011;11018;51.258;6.806;2023-06-19T10:53:30;7.07;;;4.88;;
4353;SDS011;11018;51.258;6.806;2023-06-19T10:55:58;7.25;;;5.10;;
4353;SDS011;11018;51.258;6.806;2023-06-19T10:58:25;9.43;;;5.03;;
4353;SDS011;11018;51.258;6.806;2023-06-19T11:00:54;6.28;;;4.65;;
4353;SDS011;11018;51.258;6.806;2023-06-19T11:03:20;8.98;;;4.75;;
4353;SDS011;11018;51.258;6.806;2023-06-19T11:05:46;8.10;;;5.10;;
4353;SDS011;11018;51.258;6.806;2023-06-19T11:08:22;6.95;;;4.80;;
4353;SDS011;11018;51.258;6.806;2023-06-19T11:10:48;9.70;;;5.00;;
4353;SDS011;11018;51.258;6.806;2023-06-19T11:13:18;9.85;;;4.55;;
4353;SDS011;11018;51.258;6.806;2023-06-19T11:15:45;6.60;;;4.40;;
4353;SDS011;11018;51.258;6.806;2023-06-19T11:18:14;11.37;;;4.73;;
4353;SDS011;11018;51.258;6.806;2023-06-19T11:23:15;8.45;;;4.70;;
4353;SDS011;11018;51.258;6.806;2023-06-19T11:25:41;7.60;;;5.50;;
4353;SDS011;11018;51.258;6.806;2023-06-19T11:28:16;8.15;;;4.97;;
4353;SDS011;11018;51.258;6.806;2023-06-19T11:30:49;6.70;;;4.50;;
4353;SDS011;11018;51.258;6.806;2023-06-19T11:33:22;5.65;;;4.80;;
4353;SDS011;11018;51.258;6.806;2023-06-19T11:35:48;9.53;;;4.80;;
4353;SDS011;11018;51.258;6.806;2023-06-19T11:38:21;11.63;;;5.20;;
4353;SDS011;11018;51.258;6.806;2023-06-19T11:40:49;7.65;;;5.00;;
4353;SDS011;11018;51.258;6.806;2023-06-19T11:43:28;7.75;;;4.90;;
4353;SDS011;11018;51.258;6.806;2023-06-19T11:46:04;9.20;;;5.43;;
4353;SDS011;11018;51.258;6.806;2023-06-19T11:48:31;6.90;;;5.00;;
4353;SDS011;11018;51.258;6.806;2023-06-19T11:50:57;7.93;;;5.30;;
4353;SDS011;11018;51.258;6.806;2023-06-19T11:53:23;6.82;;;5.05;;
4353;SDS011;11018;51.258;6.806;2023-06-19T11:55:50;8.13;;;4.93;;
4353;SDS011;11018;51.258;6.806;2023-06-19T11:58:16;13.15;;;5.32;;
4353;SDS011;11018;51.258;6.806;2023-06-19T12:00:42;10.87;;;5.57;;
4353;SDS011;11018;51.258;6.806;2023-06-19T12:03:08;9.30;;;5.50;;
4353;SDS011;11018;51.258;6.806;2023-06-19T12:05:34;7.60;;;5.38;;
4353;SDS011;11018;51.258;6.806;2023-06-19T12:08:00;9.80;;;5.60;;
4353;SDS011;11018;51.258;6.806;2023-06-19T12:10:27;7.30;;;5.20;;
4353;SDS011;11018;51.258;6.806;2023-06-19T12:12:53;8.07;;;6.20;;
4353;SDS011;11018;51.258;6.806;2023-06-19T12:15:19;7.70;;;5.30;;
4353;SDS011;11018;51.258;6.806;2023-06-19T12:17:45;7.77;;;5.20;;
4353;SDS011;11018;51.258;6.806;2023-06-19T12:20:11;5.35;;;4.78;;
4353;SDS011;11018;51.258;6.806;2023-06-19T12:22:38;7.20;;;5.32;;
4353;SDS011;11018;51.258;6.806;2023-06-19T12:25:04;6.63;;;5.30;;
4353;SDS011;11018;51.258;6.806;2023-06-19T12:27:30;10.30;;;5.30;;
4353;SDS011;11018;51.258;6.806;2023-06-19T12:29:56;9.20;;;5.20;;
4353;SDS011;11018;51.258;6.806;2023-06-19T12:32:22;8.90;;;4.90;;
4353;SDS011;11018;51.258;6.806;2023-06-19T12:34:48;7.07;;;5.07;;
4353;SDS011;11018;51.258;6.806;2023-06-19T12:37:14;8.43;;;5.78;;
4353;SDS011;11018;51.258;6.806;2023-06-19T12:39:42;11.00;;;5.70;;
4353;SDS011;11018;51.258;6.806;2023-06-19T12:42:08;8.90;;;5.07;;
4353;SDS011;11018;51.258;6.806;2023-06-19T12:44:33;6.68;;;5.40;;
4353;SDS011;11018;51.258;6.806;2023-06-19T12:46:59;6.47;;;4.75;;
4353;SDS011;11018;51.258;6.806;2023-06-19T12:49:25;7.05;;;5.10;;
4353;SDS011;11018;51.258;6.806;2023-06-19T12:51:51;10.32;;;5.28;;
4353;SDS011;11018;51.258;6.806;2023-06-19T12:54:17;9.25;;;5.63;;
4353;SDS011;11018;51.258;6.806;2023-06-19T12:56:43;8.57;;;5.68;;
4353;SDS011;11018;51.258;6.806;2023-06-19T12:59:09;7.75;;;5.60;;
4353;SDS011;11018;51.258;6.806;2023-06-19T13:01:35;8.20;;;5.43;;
4353;SDS011;11018;51.258;6.806;2023-06-19T13:04:01;7.80;;;5.17;;
4353;SDS011;11018;51.258;6.806;2023-06-19T13:06:26;6.78;;;5.38;;
4353;SDS011;11018;51.258;6.806;2023-06-19T13:08:52;9.10;;;5.50;;
4353;SDS011;11018;51.258;6.806;2023-06-19T13:11:17;7.95;;;5.30;;
4353;SDS011;11018;51.258;6.806;2023-06-19T13:13:43;8.10;;;5.65;;
4353;SDS011;11018;51.258;6.806;2023-06-19T13:16:08;5.97;;;5.37;;
4353;SDS011;11018;51.258;6.806;2023-06-19T13:18:37;7.43;;;5.17;;
4353;SDS011;11018;51.258;6.806;2023-06-19T13:21:02;5.35;;;4.80;;
4353;SDS011;11018;51.258;6.806;2023-06-19T13:23:28;10.47;;;5.10;;
4353;SDS011;11018;51.258;6.806;2023-06-19T13:25:56;9.40;;;5.07;;
4353;SDS011;11018;51.258;6.806;2023-06-19T13:28:21;6.90;;;4.50;;
4353;SDS011;11018;51.258;6.806;2023-06-19T13:30:48;9.67;;;4.30;;
4353;SDS011;11018;51.258;6.806;2023-06-19T13:33:15;8.30;;;5.03;;
4353;SDS011;11018;51.258;6.806;2023-06-19T13:35:41;8.50;;;5.20;;
4353;SDS011;11018;51.258;6.806;2023-06-19T13:38:07;7.20;;;4.55;;
4353;SDS011;11018;51.258;6.806;2023-06-19T13:40:32;7.07;;;4.75;;
4353;SDS011;11018;51.258;6.806;2023-06-19T13:42:58;7.37;;;4.60;;
4353;SDS011;11018;51.258;6.806;2023-06-19T13:45:24;6.47;;;4.90;;
4353;SDS011;11018;51.258;6.806;2023-06-19T13:47:50;7.60;;;4.63;;
4353;SDS011;11018;51.258;6.806;2023-06-19T13:50:16;11.10;;;5.00;;
4353;SDS011;11018;51.258;6.806;2023-06-19T13:52:44;6.68;;;4.43;;
4353;SDS011;11018;51.258;6.806;2023-06-19T13:55:10;8.25;;;4.28;;
4353;SDS011;11018;51.258;6.806;2023-06-19T13:57:36;5.65;;;4.60;;
4353;SDS011;11018;51.258;6.806;2023-06-19T14:00:03;5.70;;;5.10;;
4353;SDS011;11018;51.258;6.806;2023-06-19T14:02:29;7.87;;;4.77;;
4353;SDS011;11018;51.258;6.806;2023-06-19T14:04:54;7.13;;;4.90;;
4353;SDS011;11018;51.258;6.806;2023-06-19T14:07:20;6.38;;;5.10;;
4353;SDS011;11018;51.258;6.806;2023-06-19T14:09:48;6.23;;;4.50;;
4353;SDS011;11018;51.258;6.806;2023-06-19T14:12:13;5.55;;;4.00;;
4353;SDS011;11018;51.258;6.806;2023-06-19T14:14:39;4.97;;;3.93;;
4353;SDS011;11018;51.258;6.806;2023-06-19T14:17:05;6.10;;;4.47;;
4353;SDS011;11018;51.258;6.806;2023-06-19T14:19:31;4.73;;;4.27;;
4353;SDS011;11018;51.258;6.806;2023-06-19T14:21:56;7.25;;;4.32;;
4353;SDS011;11018;51.258;6.806;2023-06-19T14:24:22;5.33;;;4.57;;
4353;SDS011;11018;51.258;6.806;2023-06-19T14:26:49;4.78;;;4.32;;
4353;SDS011;11018;51.258;6.806;2023-06-19T14:29:15;6.80;;;3.90;;
4353;SDS011;11018;51.258;6.806;2023-06-19T14:31:43;5.80;;;3.03;;
4353;SDS011;11018;51.258;6.806;2023-06-19T14:34:09;3.60;;;3.30;;
4353;SDS011;11018;51.258;6.806;2023-06-19T14:36:36;4.30;;;3.40;;
4353;SDS011;11018;51.258;6.806;2023-06-19T14:39:02;4.75;;;3.60;;
4353;SDS011;11018;51.258;6.806;2023-06-19T14:41:28;4.20;;;3.80;;
4353;SDS011;11018;51.258;6.806;2023-06-19T14:43:54;6.90;;;3.80;;
4353;SDS011;11018;51.258;6.806;2023-06-19T14:46:19;4.37;;;3.37;;
4353;SDS011;11018;51.258;6.806;2023-06-19T14:48:45;3.67;;;3.27;;
4353;SDS011;11018;51.258;6.806;2023-06-19T14:51:10;3.30;;;3.00;;
4353;SDS011;11018;51.258;6.806;2023-06-19T14:53:36;6.93;;;2.80;;
4353;SDS011;11018;51.258;6.806;2023-06-19T14:56:02;4.43;;;3.00;;
4353;SDS011;11018;51.258;6.806;2023-06-19T14:58:28;4.85;;;3.28;;
4353;SDS011;11018;51.258;6.806;2023-06-19T15:00:54;6.32;;;3.00;;